sensor_id;sensor_type;location;lat;lon;timestamp;temperature;humidity
11609;DHT22;5860;52.018;8.536;2023-09-19T00:00:44;15.50;99.90
11609;DHT22;5860;52.018;8.536;2023-09-19T00:03:14;15.40;99.90
11609;DHT22;5860;52.018;8.536;2023-09-19T00:05:42;15.40;99.90
11609;DHT22;5860;52.018;8.536;2023-09-19T00:08:11;15.40;99.90
11609;DHT22;5860;52.018;8.536;2023-09-19T00:10:40;15.50;99.90
11609;DHT22;5860;52.018;8.536;2023-09-19T00:13:09;15.40;99.90
11609;DHT22;5860;52.018;8.536;2023-09-19T00:15:46;15.50;99.90
11609;DHT22;5860;52.018;8.536;2023-09-19T00:18:20;15.40;99.90
11609;DHT22;5860;52.018;8.536;2023-09-19T00:21:01;15.40;99.90
11609;DHT22;5860;52.018;8.536;2023-09-19T00:23:28;15.40;99.90
11609;DHT22;5860;52.018;8.536;2023-09-19T00:25:58;15.40;99.90
11609;DHT22;5860;52.018;8.536;2023-09-19T00:28:25;15.50;99.90
11609;DHT22;5860;52.018;8.536;2023-09-19T00:30:53;15.50;99.90
11609;DHT22;5860;52.018;8.536;2023-09-19T00:33:22;15.60;99.90
11609;DHT22;5860;52.018;8.536;2023-09-19T00:35:50;15.60;99.90
11609;DHT22;5860;52.018;8.536;2023-09-19T00:38:17;15.60;99.90
11609;DHT22;5860;52.018;8.536;2023-09-19T00:40:48;15.60;99.90
11609;DHT22;5860;52.018;8.536;2023-09-19T00:43:16;15.60;99.90
11609;DHT22;5860;52.018;8.536;2023-09-19T00:45:47;15.60;99.90
11609;DHT22;5860;52.018;8.536;2023-09-19T00:48:18;15.70;99.90
11609;DHT22;5860;52.018;8.536;2023-09-19T00:50:47;15.70;99.90
11609;DHT22;5860;52.018;8.536;2023-09-19T00:53:18;15.70;99.90
11609;DHT22;5860;52.018;8.536;2023-09-19T00:55:47;15.70;99.90
11609;DHT22;5860;52.018;8.536;2023-09-19T00:58:17;15.70;99.90
11609;DHT22;5860;52.018;8.536;2023-09-19T01:00:45;15.70;99.90
11609;DHT22;5860;52.018;8.536;2023-09-19T01:03:13;15.70;99.90
11609;DHT22;5860;52.018;8.536;2023-09-19T01:05:40;15.70;99.90
11609;DHT22;5860;52.018;8.536;2023-09-19T01:08:07;15.70;99.90
11609;DHT22;5860;52.018;8.536;2023-09-19T01:10:35;15.70;99.90
11609;DHT22;5860;52.018;8.536;2023-09-19T01:15:44;15.70;99.90
11609;DHT22;5860;52.018;8.536;2023-09-19T01:21:22;15.50;99.90
11609;DHT22;5860;52.018;8.536;2023-09-19T01:27:10;15.60;99.90
11609;DHT22;5860;52.018;8.536;2023-09-19T01:29:44;15.60;99.90
11609;DHT22;5860;52.018;8.536;2023-09-19T01:32:17;15.70;99.90
11609;DHT22;5860;52.018;8.536;2023-09-19T01:34:55;15.70;99.90
11609;DHT22;5860;52.018;8.536;2023-09-19T01:37:24;15.60;99.90
11609;DHT22;5860;52.018;8.536;2023-09-19T01:40:01;15.60;99.90
11609;DHT22;5860;52.018;8.536;2023-09-19T01:48:35;15.60;99.90
11609;DHT22;5860;52.018;8.536;2023-09-19T01:51:07;15.70;99.90
11609;DHT22;5860;52.018;8.536;2023-09-19T01:53:40;15.70;99.90
11609;DHT22;5860;52.018;8.536;2023-09-19T01:56:08;15.70;99.90
11609;DHT22;5860;52.018;8.536;2023-09-19T01:59:13;15.60;99.90
11609;DHT22;5860;52.018;8.536;2023-09-19T02:01:41;15.70;99.90
11609;DHT22;5860;52.018;8.536;2023-09-19T02:04:11;15.60;99.90
11609;DHT22;5860;52.018;8.536;2023-09-19T02:06:41;15.50;99.90
11609;DHT22;5860;52.018;8.536;2023-09-19T02:09:08;15.50;99.90
11609;DHT22;5860;52.018;8.536;2023-09-19T02:11:35;15.60;99.90
11609;DHT22;5860;52.018;8.536;2023-09-19T02:14:03;15.60;99.90
11609;DHT22;5860;52.018;8.536;2023-09-19T02:16:31;15.50;99.90
11609;DHT22;5860;52.018;8.536;2023-09-19T02:18:58;15.60;99.90
11609;DHT22;5860;52.018;8.536;2023-09-19T02:21:26;15.50;99.90
11609;DHT22;5860;52.018;8.536;2023-09-19T02:23:57;15.50;99.90
11609;DHT22;5860;52.018;8.536;2023-09-19T02:26:25;15.50;99.90
11609;DHT22;5860;52.018;8.536;2023-09-19T02:28:54;15.60;99.90
11609;DHT22;5860;52.018;8.536;2023-09-19T02:31:21;15.60;99.90
11609;DHT22;5860;52.018;8.536;2023-09-19T02:33:48;15.50;99.90
11609;DHT22;5860;52.018;8.536;2023-09-19T02:36:15;15.50;99.90
11609;DHT22;5860;52.018;8.536;2023-09-19T02:38:44;15.50;99.90
11609;DHT22;5860;52.018;8.536;2023-09-19T02:41:11;15.50;99.90
11609;DHT22;5860;52.018;8.536;2023-09-19T02:43:38;15.50;99.90
11609;DHT22;5860;52.018;8.536;2023-09-19T02:46:06;15.50;99.90
11609;DHT22;5860;52.018;8.536;2023-09-19T02:48:33;15.50;99.90
11609;DHT22;5860;52.018;8.536;2023-09-19T02:57:24;15.30;99.90
11609;DHT22;5860;52.018;8.536;2023-09-19T02:59:51;15.40;99.90
11609;DHT22;5860;52.018;8.536;2023-09-19T03:02:18;15.30;99.90
11609;DHT22;5860;52.018;8.536;2023-09-19T03:04:45;15.20;99.90
11609;DHT22;5860;52.018;8.536;2023-09-19T03:07:13;15.20;99.90
11609;DHT22;5860;52.018;8.536;2023-09-19T03:09:40;15.20;99.90
11609;DHT22;5860;52.018;8.536;2023-09-19T03:12:07;15.20;99.90
11609;DHT22;5860;52.018;8.536;2023-09-19T03:14:34;15.10;99.90
11609;DHT22;5860;52.018;8.536;2023-09-19T03:17:02;15.10;99.90
11609;DHT22;5860;52.018;8.536;2023-09-19T03:19:33;15.10;99.90
11609;DHT22;5860;52.018;8.536;2023-09-19T03:22:00;15.10;99.90
11609;DHT22;5860;52.018;8.536;2023-09-19T03:24:27;15.10;99.90
11609;DHT22;5860;52.018;8.536;2023-09-19T03:26:54;15.10;99.90
11609;DHT22;5860;52.018;8.536;2023-09-19T03:29:21;15.00;99.90
11609;DHT22;5860;52.018;8.536;2023-09-19T03:31:49;14.90;99.90
11609;DHT22;5860;52.018;8.536;2023-09-19T03:34:15;14.90;99.90
11609;DHT22;5860;52.018;8.536;2023-09-19T03:36:43;14.90;99.90
11609;DHT22;5860;52.018;8.536;2023-09-19T03:39:10;14.90;99.90
11609;DHT22;5860;52.018;8.536;2023-09-19T03:41:37;14.90;99.90
11609;DHT22;5860;52.018;8.536;2023-09-19T03:44:04;14.90;99.90
11609;DHT22;5860;52.018;8.536;2023-09-19T03:46:31;14.80;99.90
11609;DHT22;5860;52.018;8.536;2023-09-19T03:48:58;14.90;99.90
11609;DHT22;5860;52.018;8.536;2023-09-19T03:51:26;14.80;99.90
11609;DHT22;5860;52.018;8.536;2023-09-19T03:53:52;14.80;99.90
11609;DHT22;5860;52.018;8.536;2023-09-19T03:56:19;14.80;99.90
11609;DHT22;5860;52.018;8.536;2023-09-19T03:58:46;14.80;99.90
11609;DHT22;5860;52.018;8.536;2023-09-19T04:01:13;14.70;99.90
11609;DHT22;5860;52.018;8.536;2023-09-19T04:03:40;14.70;99.90
11609;DHT22;5860;52.018;8.536;2023-09-19T04:06:15;14.70;99.90
11609;DHT22;5860;52.018;8.536;2023-09-19T04:08:43;14.60;99.90
11609;DHT22;5860;52.018;8.536;2023-09-19T04:11:10;14.50;99.90
11609;DHT22;5860;52.018;8.536;2023-09-19T04:13:37;14.40;99.90
11609;DHT22;5860;52.018;8.536;2023-09-19T04:16:05;14.40;99.90
11609;DHT22;5860;52.018;8.536;2023-09-19T04:18:33;14.30;99.90
11609;DHT22;5860;52.018;8.536;2023-09-19T04:21:04;14.20;99.90
11609;DHT22;5860;52.018;8.536;2023-09-19T04:23:33;14.20;99.90
11609;DHT22;5860;52.018;8.536;2023-09-19T04:26:00;14.20;99.90
11609;DHT22;5860;52.018;8.536;2023-09-19T04:28:26;14.20;99.90
11609;DHT22;5860;52.018;8.536;2023-09-19T04:30:54;14.20;99.90
11609;DHT22;5860;52.018;8.536;2023-09-19T04:33:22;14.30;99.90
11609;DHT22;5860;52.018;8.536;2023-09-19T04:35:50;14.20;99.90
11609;DHT22;5860;52.018;8.536;2023-09-19T04:38:20;14.20;99.90
11609;DHT22;5860;52.018;8.536;2023-09-19T04:40:47;14.10;99.90
11609;DHT22;5860;52.018;8.536;2023-09-19T04:43:14;14.10;99.90
11609;DHT22;5860;52.018;8.536;2023-09-19T04:45:42;14.00;99.90
11609;DHT22;5860;52.018;8.536;2023-09-19T04:48:09;14.00;99.90
11609;DHT22;5860;52.018;8.536;2023-09-19T04:50:35;14.00;99.90
11609;DHT22;5860;52.018;8.536;2023-09-19T04:53:03;13.90;99.90
11609;DHT22;5860;52.018;8.536;2023-09-19T04:55:31;13.90;99.90
11609;DHT22;5860;52.018;8.536;2023-09-19T04:57:59;13.90;99.90
11609;DHT22;5860;52.018;8.536;2023-09-19T05:00:26;13.90;99.90
11609;DHT22;5860;52.018;8.536;2023-09-19T05:02:57;13.90;99.90
11609;DHT22;5860;52.018;8.536;2023-09-19T05:05:24;14.00;99.90
11609;DHT22;5860;52.018;8.536;2023-09-19T05:07:52;14.00;99.90
11609;DHT22;5860;52.018;8.536;2023-09-19T05:10:21;13.90;99.90
11609;DHT22;5860;52.018;8.536;2023-09-19T05:12:48;13.90;1.00
11609;DHT22;5860;52.018;8.536;2023-09-19T05:15:18;13.90;1.00
11609;DHT22;5860;52.018;8.536;2023-09-19T05:17:52;13.80;1.00
11609;DHT22;5860;52.018;8.536;2023-09-19T05:20:24;14.00;1.00
11609;DHT22;5860;52.018;8.536;2023-09-19T05:23:00;13.90;1.00
11609;DHT22;5860;52.018;8.536;2023-09-19T05:25:32;13.80;1.00
11609;DHT22;5860;52.018;8.536;2023-09-19T05:27:59;13.90;1.00
11609;DHT22;5860;52.018;8.536;2023-09-19T05:30:27;13.90;1.00
11609;DHT22;5860;52.018;8.536;2023-09-19T05:32:54;13.80;1.00
11609;DHT22;5860;52.018;8.536;2023-09-19T05:35:22;13.80;1.00
11609;DHT22;5860;52.018;8.536;2023-09-19T05:37:53;13.80;1.00
11609;DHT22;5860;52.018;8.536;2023-09-19T05:40:21;13.80;1.00
11609;DHT22;5860;52.018;8.536;2023-09-19T05:42:48;13.90;1.00
11609;DHT22;5860;52.018;8.536;2023-09-19T05:45:17;13.90;1.00
11609;DHT22;5860;52.018;8.536;2023-09-19T05:47:51;13.90;1.00
11609;DHT22;5860;52.018;8.536;2023-09-19T05:50:22;14.00;1.00
11609;DHT22;5860;52.018;8.536;2023-09-19T05:52:54;14.00;1.00
11609;DHT22;5860;52.018;8.536;2023-09-19T05:55:23;14.00;1.00
11609;DHT22;5860;52.018;8.536;2023-09-19T05:57:52;14.10;1.00
11609;DHT22;5860;52.018;8.536;2023-09-19T06:00:22;14.20;1.00
11609;DHT22;5860;52.018;8.536;2023-09-19T06:02:54;14.10;1.00
11609;DHT22;5860;52.018;8.536;2023-09-19T06:05:22;14.20;99.90
11609;DHT22;5860;52.018;8.536;2023-09-19T06:07:49;14.30;99.90
11609;DHT22;5860;52.018;8.536;2023-09-19T06:10:17;14.40;99.90
11609;DHT22;5860;52.018;8.536;2023-09-19T06:12:44;14.40;99.90
11609;DHT22;5860;52.018;8.536;2023-09-19T06:15:13;14.40;99.90
11609;DHT22;5860;52.018;8.536;2023-09-19T06:17:54;15.10;1.00
11609;DHT22;5860;52.018;8.536;2023-09-19T06:20:26;15.00;99.90
11609;DHT22;5860;52.018;8.536;2023-09-19T06:22:53;15.80;1.00
11609;DHT22;5860;52.018;8.536;2023-09-19T06:25:21;17.50;99.90
11609;DHT22;5860;52.018;8.536;2023-09-19T06:27:52;19.10;99.90
11609;DHT22;5860;52.018;8.536;2023-09-19T06:30:22;20.20;99.90
11609;DHT22;5860;52.018;8.536;2023-09-19T06:32:58;18.10;99.90
11609;DHT22;5860;52.018;8.536;2023-09-19T06:35:27;16.70;19.40
11609;DHT22;5860;52.018;8.536;2023-09-19T06:37:56;16.10;99.90
11609;DHT22;5860;52.018;8.536;2023-09-19T06:40:25;15.60;99.90
11609;DHT22;5860;52.018;8.536;2023-09-19T06:42:52;15.60;1.00
11609;DHT22;5860;52.018;8.536;2023-09-19T06:45:20;15.80;1.00
11609;DHT22;5860;52.018;8.536;2023-09-19T06:47:50;15.90;17.00
11609;DHT22;5860;52.018;8.536;2023-09-19T06:50:19;15.80;32.00
11609;DHT22;5860;52.018;8.536;2023-09-19T06:52:53;15.80;99.90
11609;DHT22;5860;52.018;8.536;2023-09-19T06:55:21;15.70;99.90
11609;DHT22;5860;52.018;8.536;2023-09-19T06:57:52;15.80;1.00
11609;DHT22;5860;52.018;8.536;2023-09-19T07:00:21;15.70;1.00
11609;DHT22;5860;52.018;8.536;2023-09-19T07:03:05;15.60;99.90
11609;DHT22;5860;52.018;8.536;2023-09-19T07:05:35;15.70;1.00
11609;DHT22;5860;52.018;8.536;2023-09-19T07:08:10;15.70;99.90
11609;DHT22;5860;52.018;8.536;2023-09-19T07:10:40;15.50;1.00
11609;DHT22;5860;52.018;8.536;2023-09-19T07:13:08;15.30;36.00
11609;DHT22;5860;52.018;8.536;2023-09-19T07:15:38;15.30;99.90
11609;DHT22;5860;52.018;8.536;2023-09-19T07:18:07;15.40;99.90
11609;DHT22;5860;52.018;8.536;2023-09-19T07:20:35;15.40;99.90
11609;DHT22;5860;52.018;8.536;2023-09-19T07:23:02;15.30;99.90
11609;DHT22;5860;52.018;8.536;2023-09-19T07:25:30;15.40;99.90
11609;DHT22;5860;52.018;8.536;2023-09-19T07:28:00;15.40;1.00
11609;DHT22;5860;52.018;8.536;2023-09-19T07:30:28;15.50;99.90
11609;DHT22;5860;52.018;8.536;2023-09-19T07:32:56;15.60;99.90
11609;DHT22;5860;52.018;8.536;2023-09-19T07:35:23;15.60;99.50
11609;DHT22;5860;52.018;8.536;2023-09-19T07:37:50;15.70;1.00
11609;DHT22;5860;52.018;8.536;2023-09-19T07:40:19;15.70;1.00
11609;DHT22;5860;52.018;8.536;2023-09-19T07:42:47;15.70;1.00
11609;DHT22;5860;52.018;8.536;2023-09-19T07:45:14;15.80;99.90
11609;DHT22;5860;52.018;8.536;2023-09-19T07:47:48;15.80;22.40
11609;DHT22;5860;52.018;8.536;2023-09-19T07:50:16;15.90;99.90
11609;DHT22;5860;52.018;8.536;2023-09-19T07:52:46;16.00;1.00
11609;DHT22;5860;52.018;8.536;2023-09-19T07:55:13;16.10;1.00
11609;DHT22;5860;52.018;8.536;2023-09-19T07:57:43;16.00;1.00
11609;DHT22;5860;52.018;8.536;2023-09-19T08:00:10;16.00;99.90
11609;DHT22;5860;52.018;8.536;2023-09-19T08:02:38;16.20;99.90
11609;DHT22;5860;52.018;8.536;2023-09-19T08:05:10;16.10;99.90
11609;DHT22;5860;52.018;8.536;2023-09-19T08:07:39;16.10;1.00
11609;DHT22;5860;52.018;8.536;2023-09-19T08:10:07;16.20;99.90
11609;DHT22;5860;52.018;8.536;2023-09-19T08:12:35;16.20;1.00
11609;DHT22;5860;52.018;8.536;2023-09-19T08:15:17;16.50;99.90
11609;DHT22;5860;52.018;8.536;2023-09-19T08:17:46;16.40;1.00
11609;DHT22;5860;52.018;8.536;2023-09-19T08:20:14;16.40;99.90
11609;DHT22;5860;52.018;8.536;2023-09-19T08:22:50;16.40;1.00
11609;DHT22;5860;52.018;8.536;2023-09-19T08:25:20;16.60;99.90
11609;DHT22;5860;52.018;8.536;2023-09-19T08:27:49;16.40;1.00
11609;DHT22;5860;52.018;8.536;2023-09-19T08:30:20;16.70;99.90
11609;DHT22;5860;52.018;8.536;2023-09-19T08:32:57;16.80;1.00
11609;DHT22;5860;52.018;8.536;2023-09-19T08:35:25;16.70;1.00
11609;DHT22;5860;52.018;8.536;2023-09-19T08:37:52;16.80;1.00
11609;DHT22;5860;52.018;8.536;2023-09-19T08:40:19;16.80;1.00
11609;DHT22;5860;52.018;8.536;2023-09-19T08:42:53;16.70;1.00
11609;DHT22;5860;52.018;8.536;2023-09-19T08:45:22;17.00;1.00
11609;DHT22;5860;52.018;8.536;2023-09-19T08:50:51;17.00;1.00
11609;DHT22;5860;52.018;8.536;2023-09-19T08:53:41;17.10;99.90
11609;DHT22;5860;52.018;8.536;2023-09-19T08:56:11;17.00;75.90
11609;DHT22;5860;52.018;8.536;2023-09-19T08:58:46;16.90;1.00
11609;DHT22;5860;52.018;8.536;2023-09-19T09:01:16;16.90;99.90
11609;DHT22;5860;52.018;8.536;2023-09-19T09:03:44;17.20;30.60
11609;DHT22;5860;52.018;8.536;2023-09-19T09:06:16;17.30;1.00
11609;DHT22;5860;52.018;8.536;2023-09-19T09:08:46;17.40;99.90
11609;DHT22;5860;52.018;8.536;2023-09-19T09:11:14;17.30;99.90
11609;DHT22;5860;52.018;8.536;2023-09-19T09:13:45;17.40;99.90
11609;DHT22;5860;52.018;8.536;2023-09-19T09:16:13;17.30;99.90
11609;DHT22;5860;52.018;8.536;2023-09-19T09:18:45;17.50;99.90
11609;DHT22;5860;52.018;8.536;2023-09-19T09:21:12;17.50;1.00
11609;DHT22;5860;52.018;8.536;2023-09-19T09:23:41;17.40;1.00
11609;DHT22;5860;52.018;8.536;2023-09-19T09:26:08;17.20;1.00
11609;DHT22;5860;52.018;8.536;2023-09-19T09:28:38;17.20;99.90
11609;DHT22;5860;52.018;8.536;2023-09-19T09:31:24;17.40;1.00
11609;DHT22;5860;52.018;8.536;2023-09-19T09:33:55;17.50;1.00
11609;DHT22;5860;52.018;8.536;2023-09-19T09:39:01;17.40;1.00
11609;DHT22;5860;52.018;8.536;2023-09-19T09:41:43;17.40;99.90
11609;DHT22;5860;52.018;8.536;2023-09-19T09:44:17;17.50;7.60
11609;DHT22;5860;52.018;8.536;2023-09-19T09:46:47;17.70;1.00
11609;DHT22;5860;52.018;8.536;2023-09-19T09:49:25;17.60;1.00
11609;DHT22;5860;52.018;8.536;2023-09-19T09:52:04;17.80;1.00
11609;DHT22;5860;52.018;8.536;2023-09-19T09:54:38;17.60;99.90
11609;DHT22;5860;52.018;8.536;2023-09-19T09:57:10;17.40;1.00
11609;DHT22;5860;52.018;8.536;2023-09-19T09:59:45;17.50;1.00
11609;DHT22;5860;52.018;8.536;2023-09-19T10:04:56;17.60;1.00
11609;DHT22;5860;52.018;8.536;2023-09-19T10:07:37;17.90;99.90
11609;DHT22;5860;52.018;8.536;2023-09-19T10:10:10;17.80;99.90
11609;DHT22;5860;52.018;8.536;2023-09-19T10:12:45;18.00;99.90
11609;DHT22;5860;52.018;8.536;2023-09-19T10:15:16;17.90;1.00
11609;DHT22;5860;52.018;8.536;2023-09-19T10:17:44;17.80;99.90
11609;DHT22;5860;52.018;8.536;2023-09-19T10:20:14;18.00;38.20
11609;DHT22;5860;52.018;8.536;2023-09-19T10:23:03;18.10;1.00
11609;DHT22;5860;52.018;8.536;2023-09-19T10:25:30;18.00;99.90
11609;DHT22;5860;52.018;8.536;2023-09-19T10:28:00;18.30;1.00
11609;DHT22;5860;52.018;8.536;2023-09-19T10:30:32;18.40;99.90
11609;DHT22;5860;52.018;8.536;2023-09-19T10:33:03;18.30;99.90
11609;DHT22;5860;52.018;8.536;2023-09-19T10:35:32;18.20;99.90
11609;DHT22;5860;52.018;8.536;2023-09-19T10:38:01;18.20;99.90
11609;DHT22;5860;52.018;8.536;2023-09-19T10:40:28;18.30;99.90
11609;DHT22;5860;52.018;8.536;2023-09-19T10:43:04;18.50;99.90
11609;DHT22;5860;52.018;8.536;2023-09-19T10:45:35;18.40;99.90
11609;DHT22;5860;52.018;8.536;2023-09-19T10:48:02;18.30;99.90
11609;DHT22;5860;52.018;8.536;2023-09-19T10:50:33;18.30;99.90
11609;DHT22;5860;52.018;8.536;2023-09-19T10:53:05;18.20;99.90
11609;DHT22;5860;52.018;8.536;2023-09-19T10:55:35;18.40;99.90
11609;DHT22;5860;52.018;8.536;2023-09-19T10:58:05;18.70;99.90
11609;DHT22;5860;52.018;8.536;2023-09-19T11:00:57;18.70;99.90
11609;DHT22;5860;52.018;8.536;2023-09-19T11:03:29;18.80;99.90
11609;DHT22;5860;52.018;8.536;2023-09-19T11:06:04;18.90;99.90
11609;DHT22;5860;52.018;8.536;2023-09-19T11:08:54;18.60;99.90
11609;DHT22;5860;52.018;8.536;2023-09-19T11:30:43;19.10;99.90
11609;DHT22;5860;52.018;8.536;2023-09-19T11:46:27;19.70;99.90
11609;DHT22;5860;52.018;8.536;2023-09-19T11:49:08;19.50;99.90
11609;DHT22;5860;52.018;8.536;2023-09-19T11:51:43;19.40;99.90
11609;DHT22;5860;52.018;8.536;2023-09-19T11:54:11;19.70;99.90
11609;DHT22;5860;52.018;8.536;2023-09-19T11:56:47;20.00;99.90
11609;DHT22;5860;52.018;8.536;2023-09-19T11:59:21;19.90;99.90
11609;DHT22;5860;52.018;8.536;2023-09-19T12:01:53;20.20;99.90
11609;DHT22;5860;52.018;8.536;2023-09-19T12:04:39;20.20;99.90
11609;DHT22;5860;52.018;8.536;2023-09-19T12:07:10;19.80;99.90
11609;DHT22;5860;52.018;8.536;2023-09-19T12:09:43;19.80;99.90
11609;DHT22;5860;52.018;8.536;2023-09-19T12:12:24;19.60;99.90
11609;DHT22;5860;52.018;8.536;2023-09-19T12:14:55;19.80;99.90
11609;DHT22;5860;52.018;8.536;2023-09-19T12:17:39;19.80;99.90
11609;DHT22;5860;52.018;8.536;2023-09-19T12:20:08;20.00;99.90
11609;DHT22;5860;52.018;8.536;2023-09-19T12:22:43;19.80;99.90
11609;DHT22;5860;52.018;8.536;2023-09-19T12:25:11;19.60;99.90
11609;DHT22;5860;52.018;8.536;2023-09-19T12:27:46;19.70;99.90
11609;DHT22;5860;52.018;8.536;2023-09-19T12:30:15;19.60;99.90
11609;DHT22;5860;52.018;8.536;2023-09-19T12:32:47;19.80;99.90
11609;DHT22;5860;52.018;8.536;2023-09-19T12:35:29;19.70;99.90
11609;DHT22;5860;52.018;8.536;2023-09-19T12:37:57;19.70;99.90
11609;DHT22;5860;52.018;8.536;2023-09-19T12:40:25;19.60;99.90
11609;DHT22;5860;52.018;8.536;2023-09-19T12:42:57;19.80;99.90
11609;DHT22;5860;52.018;8.536;2023-09-19T12:45:31;19.50;99.90
11609;DHT22;5860;52.018;8.536;2023-09-19T12:51:01;19.80;99.90
11609;DHT22;5860;52.018;8.536;2023-09-19T12:53:30;19.80;99.90
11609;DHT22;5860;52.018;8.536;2023-09-19T12:56:00;20.00;99.90
11609;DHT22;5860;52.018;8.536;2023-09-19T12:58:27;19.80;99.90
11609;DHT22;5860;52.018;8.536;2023-09-19T13:00:57;19.60;99.90
11609;DHT22;5860;52.018;8.536;2023-09-19T13:08:34;19.70;99.90
11609;DHT22;5860;52.018;8.536;2023-09-19T13:11:17;19.70;99.90
11609;DHT22;5860;52.018;8.536;2023-09-19T13:16:21;20.00;99.90
11609;DHT22;5860;52.018;8.536;2023-09-19T13:18:54;19.90;99.90
11609;DHT22;5860;52.018;8.536;2023-09-19T13:21:33;19.90;99.90
11609;DHT22;5860;52.018;8.536;2023-09-19T13:24:22;19.80;99.90
11609;DHT22;5860;52.018;8.536;2023-09-19T13:26:52;19.70;99.90
11609;DHT22;5860;52.018;8.536;2023-09-19T13:29:19;19.70;99.90
11609;DHT22;5860;52.018;8.536;2023-09-19T13:31:50;19.70;99.90
11609;DHT22;5860;52.018;8.536;2023-09-19T13:34:20;19.70;99.90
11609;DHT22;5860;52.018;8.536;2023-09-19T13:36:47;19.90;99.90
11609;DHT22;5860;52.018;8.536;2023-09-19T13:39:17;20.00;99.90
11609;DHT22;5860;52.018;8.536;2023-09-19T13:41:45;19.90;99.90
11609;DHT22;5860;52.018;8.536;2023-09-19T13:44:14;19.80;99.90
11609;DHT22;5860;52.018;8.536;2023-09-19T13:46:41;19.80;99.90
11609;DHT22;5860;52.018;8.536;2023-09-19T13:49:13;19.70;99.90
11609;DHT22;5860;52.018;8.536;2023-09-19T13:51:40;19.60;99.90
11609;DHT22;5860;52.018;8.536;2023-09-19T13:54:10;19.80;99.90
11609;DHT22;5860;52.018;8.536;2023-09-19T13:56:39;19.90;99.90
11609;DHT22;5860;52.018;8.536;2023-09-19T13:59:06;19.90;99.90
11609;DHT22;5860;52.018;8.536;2023-09-19T14:01:33;19.80;99.90
11609;DHT22;5860;52.018;8.536;2023-09-19T14:04:00;19.70;99.90
11609;DHT22;5860;52.018;8.536;2023-09-19T14:06:28;19.80;99.90
11609;DHT22;5860;52.018;8.536;2023-09-19T14:08:55;19.60;99.90
11609;DHT22;5860;52.018;8.536;2023-09-19T14:11:22;19.80;99.90
11609;DHT22;5860;52.018;8.536;2023-09-19T14:13:49;20.20;99.90
11609;DHT22;5860;52.018;8.536;2023-09-19T14:16:16;20.30;99.90
11609;DHT22;5860;52.018;8.536;2023-09-19T14:18:45;20.20;99.90
11609;DHT22;5860;52.018;8.536;2023-09-19T14:21:13;20.20;99.90
11609;DHT22;5860;52.018;8.536;2023-09-19T14:23:41;20.20;99.90
11609;DHT22;5860;52.018;8.536;2023-09-19T14:26:10;20.10;99.90
11609;DHT22;5860;52.018;8.536;2023-09-19T14:28:37;20.20;99.90
11609;DHT22;5860;52.018;8.536;2023-09-19T14:31:10;20.20;99.90
11609;DHT22;5860;52.018;8.536;2023-09-19T14:33:38;20.20;99.90
11609;DHT22;5860;52.018;8.536;2023-09-19T14:36:09;20.00;99.90
11609;DHT22;5860;52.018;8.536;2023-09-19T14:38:38;20.10;99.90
11609;DHT22;5860;52.018;8.536;2023-09-19T14:41:06;20.20;99.90
11609;DHT22;5860;52.018;8.536;2023-09-19T14:43:33;20.10;99.90
11609;DHT22;5860;52.018;8.536;2023-09-19T14:46:04;19.80;99.90
11609;DHT22;5860;52.018;8.536;2023-09-19T14:48:31;19.70;99.90
11609;DHT22;5860;52.018;8.536;2023-09-19T14:51:02;19.80;99.90
11609;DHT22;5860;52.018;8.536;2023-09-19T14:53:30;19.80;99.90
11609;DHT22;5860;52.018;8.536;2023-09-19T14:56:01;19.70;99.90
11609;DHT22;5860;52.018;8.536;2023-09-19T14:58:31;19.60;99.90
11609;DHT22;5860;52.018;8.536;2023-09-19T15:01:09;19.60;99.90
11609;DHT22;5860;52.018;8.536;2023-09-19T15:03:40;19.70;99.90
11609;DHT22;5860;52.018;8.536;2023-09-19T15:06:12;19.90;99.90
11609;DHT22;5860;52.018;8.536;2023-09-19T15:08:45;19.70;99.90
11609;DHT22;5860;52.018;8.536;2023-09-19T15:11:15;19.70;99.90
11609;DHT22;5860;52.018;8.536;2023-09-19T15:13:48;19.60;99.90
11609;DHT22;5860;52.018;8.536;2023-09-19T15:16:17;19.60;99.90
11609;DHT22;5860;52.018;8.536;2023-09-19T15:18:45;19.60;99.90
11609;DHT22;5860;52.018;8.536;2023-09-19T15:21:15;19.60;99.90
11609;DHT22;5860;52.018;8.536;2023-09-19T15:23:43;19.60;99.90
11609;DHT22;5860;52.018;8.536;2023-09-19T15:26:13;19.60;99.90
11609;DHT22;5860;52.018;8.536;2023-09-19T15:28:44;19.60;99.90
11609;DHT22;5860;52.018;8.536;2023-09-19T15:31:12;19.50;99.90
11609;DHT22;5860;52.018;8.536;2023-09-19T15:33:40;19.60;99.90
11609;DHT22;5860;52.018;8.536;2023-09-19T15:36:08;19.60;99.90
11609;DHT22;5860;52.018;8.536;2023-09-19T15:38:56;19.50;99.90
11609;DHT22;5860;52.018;8.536;2023-09-19T15:41:29;19.50;99.90
11609;DHT22;5860;52.018;8.536;2023-09-19T15:43:57;19.50;99.90
11609;DHT22;5860;52.018;8.536;2023-09-19T15:46:26;19.40;99.90
11609;DHT22;5860;52.018;8.536;2023-09-19T15:48:54;19.40;99.90
11609;DHT22;5860;52.018;8.536;2023-09-19T15:51:21;19.40;99.90
11609;DHT22;5860;52.018;8.536;2023-09-19T15:53:50;19.50;99.90
11609;DHT22;5860;52.018;8.536;2023-09-19T15:56:18;19.40;99.90
11609;DHT22;5860;52.018;8.536;2023-09-19T15:58:46;19.40;99.90
11609;DHT22;5860;52.018;8.536;2023-09-19T16:01:14;19.30;99.90
11609;DHT22;5860;52.018;8.536;2023-09-19T16:03:50;19.30;99.90
11609;DHT22;5860;52.018;8.536;2023-09-19T16:06:22;19.20;99.90
11609;DHT22;5860;52.018;8.536;2023-09-19T16:08:57;19.30;99.90
11609;DHT22;5860;52.018;8.536;2023-09-19T16:11:26;19.10;99.90
11609;DHT22;5860;52.018;8.536;2023-09-19T16:13:54;19.10;99.90
11609;DHT22;5860;52.018;8.536;2023-09-19T16:16:22;19.10;99.90
11609;DHT22;5860;52.018;8.536;2023-09-19T16:18:53;19.20;99.90
11609;DHT22;5860;52.018;8.536;2023-09-19T16:21:25;19.20;99.90
11609;DHT22;5860;52.018;8.536;2023-09-19T16:23:55;19.00;99.90
11609;DHT22;5860;52.018;8.536;2023-09-19T16:26:22;19.00;99.90
11609;DHT22;5860;52.018;8.536;2023-09-19T16:28:55;18.90;99.90
11609;DHT22;5860;52.018;8.536;2023-09-19T16:31:29;18.90;99.90
11609;DHT22;5860;52.018;8.536;2023-09-19T16:33:58;18.80;99.90
11609;DHT22;5860;52.018;8.536;2023-09-19T16:36:26;18.80;99.90
11609;DHT22;5860;52.018;8.536;2023-09-19T16:38:54;18.70;99.90
11609;DHT22;5860;52.018;8.536;2023-09-19T16:41:22;18.70;99.90
11609;DHT22;5860;52.018;8.536;2023-09-19T16:43:49;18.70;99.90
11609;DHT22;5860;52.018;8.536;2023-09-19T16:46:16;18.60;99.90
11609;DHT22;5860;52.018;8.536;2023-09-19T16:48:45;18.60;99.90
11609;DHT22;5860;52.018;8.536;2023-09-19T16:51:16;18.50;99.90
11609;DHT22;5860;52.018;8.536;2023-09-19T16:53:44;18.50;99.90
11609;DHT22;5860;52.018;8.536;2023-09-19T16:56:16;18.50;99.90
11609;DHT22;5860;52.018;8.536;2023-09-19T16:58:47;18.40;99.90
11609;DHT22;5860;52.018;8.536;2023-09-19T17:01:16;18.50;99.90
11609;DHT22;5860;52.018;8.536;2023-09-19T17:03:46;18.40;99.90
11609;DHT22;5860;52.018;8.536;2023-09-19T17:06:14;18.40;99.90
11609;DHT22;5860;52.018;8.536;2023-09-19T17:08:45;18.40;99.90
11609;DHT22;5860;52.018;8.536;2023-09-19T17:11:14;18.40;99.90
11609;DHT22;5860;52.018;8.536;2023-09-19T17:13:46;18.40;99.90
11609;DHT22;5860;52.018;8.536;2023-09-19T17:16:15;18.40;99.90
11609;DHT22;5860;52.018;8.536;2023-09-19T17:18:45;18.40;99.90
11609;DHT22;5860;52.018;8.536;2023-09-19T17:21:12;18.40;99.90